createdAt,value
2022-09-03T00:02:22.448Z,100205.03
2022-09-03T00:05:20.464Z,100210.19
2022-09-03T00:07:57.130Z,100206.16
2022-09-03T00:10:47.902Z,100219.13
2022-09-03T00:13:43.465Z,100207.19
2022-09-03T00:16:19.979Z,100211.47
2022-09-03T00:18:59.811Z,100206.06
2022-09-03T00:21:45.123Z,100210.88
2022-09-03T00:24:18.016Z,100214.38
2022-09-03T00:26:55.559Z,100212.56
2022-09-03T00:29:39.022Z,100215.44
2022-09-03T00:32:19.283Z,100214.53
2022-09-03T00:34:53.340Z,100213.19
2022-09-03T00:37:25.460Z,100203.91
2022-09-03T00:39:57.557Z,100212.59
2022-09-03T00:42:57.990Z,100207.97
2022-09-03T00:45:35.463Z,100213.97
2022-09-03T00:48:31.467Z,100217.91
2022-09-03T00:51:34.731Z,100215.19
2022-09-03T00:54:32.360Z,100208.66
2022-09-03T00:57:31.714Z,100211.13
2022-09-03T01:00:10.605Z,100210.13
2022-09-03T01:02:58.585Z,100210.09
2022-09-03T01:05:42.929Z,100211.00
2022-09-03T01:08:32.744Z,100219.03
2022-09-03T01:11:30.555Z,100227.66
2022-09-03T01:14:13.311Z,100226.94
2022-09-03T01:16:57.267Z,100223.87
2022-09-03T01:19:48.143Z,100231.09
2022-09-03T01:22:51.681Z,100238.78
2022-09-03T01:25:44.867Z,100243.31
2022-09-03T01:28:49.584Z,100235.69
2022-09-03T01:31:58.561Z,100232.78
2022-09-03T01:34:43.585Z,100231.28
2022-09-03T01:37:29.061Z,100233.91
2022-09-03T01:40:18.107Z,100224.19
2022-09-03T01:43:03.585Z,100232.81
2022-09-03T01:45:52.469Z,100227.22
2022-09-03T01:48:31.910Z,100234.38
2022-09-03T01:51:23.228Z,100234.19
2022-09-03T01:54:31.107Z,100239.50
2022-09-03T01:57:34.715Z,100244.19
2022-09-03T02:00:14.284Z,100235.03
2022-09-03T02:02:51.990Z,100240.66
2022-09-03T02:05:26.480Z,100240.97
2022-09-03T02:08:13.916Z,100238.03
2022-09-03T02:10:55.410Z,100249.16
2022-09-03T02:13:36.574Z,100237.94
2022-09-03T02:16:13.109Z,100238.59
2022-09-03T02:18:47.088Z,100236.38
2022-09-03T02:21:20.612Z,100236.63
2022-09-03T02:23:50.110Z,100247.78
2022-09-03T02:26:26.318Z,100236.69
2022-09-03T02:28:56.884Z,100238.53
2022-09-03T02:31:29.435Z,100240.31
2022-09-03T02:34:01.020Z,100240.75
2022-09-03T02:36:38.487Z,100232.53
2022-09-03T02:39:08.776Z,100238.78
2022-09-03T02:41:41.302Z,100245.34
2022-09-03T02:44:26.379Z,100242.06
2022-09-03T02:47:03.355Z,100239.25
2022-09-03T02:49:33.863Z,100240.78
2022-09-03T02:52:10.281Z,100236.28
2022-09-03T02:54:40.901Z,100241.47
2022-09-03T02:57:14.837Z,100246.91
2022-09-03T02:59:46.105Z,100242.56
2022-09-03T03:02:17.387Z,100249.59
2022-09-03T03:04:48.075Z,100243.81
2022-09-03T03:07:20.933Z,100247.75
2022-09-03T03:09:50.897Z,100236.38
2022-09-03T03:12:24.124Z,100230.78
2022-09-03T03:14:53.927Z,100234.63
2022-09-03T03:17:24.677Z,100250.94
2022-09-03T03:19:55.317Z,100241.78
2022-09-03T03:22:26.388Z,100242.88
2022-09-03T03:24:57.446Z,100248.84
2022-09-03T03:27:28.621Z,100253.03
2022-09-03T03:29:58.672Z,100252.97
2022-09-03T03:32:28.913Z,100257.91
2022-09-03T03:35:00.860Z,100261.59
2022-09-03T03:37:31.874Z,100259.06
2022-09-03T03:40:04.366Z,100263.87
2022-09-03T03:42:37.639Z,100259.22
2022-09-03T03:45:10.757Z,100256.44
2022-09-03T03:47:39.998Z,100252.06
2022-09-03T03:50:11.681Z,100261.34
2022-09-03T03:52:44.506Z,100264.94
2022-09-03T03:55:17.269Z,100259.16
2022-09-03T03:57:46.808Z,100257.69
2022-09-03T04:00:18.459Z,100261.34
2022-09-03T04:02:51.184Z,100266.34
2022-09-03T04:05:23.139Z,100270.59
2022-09-03T04:07:54.307Z,100276.81
2022-09-03T04:10:25.425Z,100276.00
2022-09-03T04:12:59.512Z,100279.78
2022-09-03T04:15:28.852Z,100281.75
2022-09-03T04:18:02.472Z,100288.72
2022-09-03T04:20:31.365Z,100281.53
2022-09-03T04:23:03.973Z,100286.75
2022-09-03T04:25:34.048Z,100287.66
2022-09-03T04:28:08.474Z,100295.06
2022-09-03T04:30:40.235Z,100286.97
2022-09-03T04:33:15.985Z,100289.00
2022-09-03T04:35:46.792Z,100289.50
2022-09-03T04:38:17.871Z,100290.50
2022-09-03T04:40:53.693Z,100293.50
2022-09-03T04:43:25.011Z,100301.28
2022-09-03T04:45:58.808Z,100303.41
2022-09-03T04:48:28.963Z,100295.72
2022-09-03T04:51:08.720Z,100298.31
2022-09-03T04:53:43.040Z,100302.00
2022-09-03T04:56:20.395Z,100303.88
2022-09-03T04:58:56.142Z,100298.03
2022-09-03T05:01:28.312Z,100293.91
2022-09-03T05:04:00.051Z,100303.06
2022-09-03T05:06:32.282Z,100297.53
2022-09-03T05:09:04.487Z,100303.88
2022-09-03T05:11:40.581Z,100294.59
2022-09-03T05:14:13.115Z,100304.97
2022-09-03T05:16:42.224Z,100304.72
2022-09-03T05:19:14.596Z,100305.69
2022-09-03T05:21:44.111Z,100302.81
2022-09-03T05:24:15.565Z,100302.94
2022-09-03T05:26:45.609Z,100304.78
2022-09-03T05:29:16.628Z,100300.78
2022-09-03T05:31:47.610Z,100309.00
2022-09-03T05:34:19.749Z,100304.94
2022-09-03T05:36:50.463Z,100303.62
2022-09-03T05:39:24.029Z,100302.22
2022-09-03T05:41:54.086Z,100301.56
2022-09-03T05:44:25.480Z,100303.38
2022-09-03T05:46:55.477Z,100299.84
2022-09-03T05:49:25.816Z,100302.31
2022-09-03T05:51:55.806Z,100302.41
2022-09-03T05:54:27.278Z,100309.94
2022-09-03T05:56:56.820Z,100311.13
2022-09-03T05:59:27.069Z,100310.59
2022-09-03T06:02:00.141Z,100309.94
2022-09-03T06:04:33.753Z,100301.25
2022-09-03T06:07:03.478Z,100303.28
2022-09-03T06:09:34.066Z,100306.19
2022-09-03T06:12:04.841Z,100305.06
2022-09-03T06:14:36.085Z,100306.50
2022-09-03T06:17:04.962Z,100301.72
2022-09-03T06:19:33.864Z,100293.00
2022-09-03T06:22:04.689Z,100298.56
2022-09-03T06:24:33.793Z,100302.00
2022-09-03T06:27:04.867Z,100304.38
2022-09-03T06:29:40.471Z,100298.34
2022-09-03T06:32:11.648Z,100293.12
2022-09-03T06:34:42.539Z,100294.66
2022-09-03T06:37:12.583Z,100286.28
2022-09-03T06:39:40.728Z,100282.03
2022-09-03T06:42:09.824Z,100287.69
2022-09-03T06:44:47.076Z,100279.44
2022-09-03T06:47:15.982Z,100283.56
2022-09-03T06:49:45.728Z,100282.41
2022-09-03T06:52:16.821Z,100285.63
2022-09-03T06:54:50.377Z,100281.69
2022-09-03T06:57:19.693Z,100281.53
2022-09-03T06:59:50.387Z,100274.03
2022-09-03T07:02:23.415Z,100282.09
2022-09-03T07:04:54.887Z,100285.94
2022-09-03T07:07:24.711Z,100283.28
2022-09-03T07:09:55.156Z,100286.94
2022-09-03T07:12:25.368Z,100285.88
2022-09-03T07:14:57.517Z,100284.94
2022-09-03T07:17:29.390Z,100281.63
2022-09-03T07:20:01.363Z,100283.09
2022-09-03T07:22:31.470Z,100279.19
2022-09-03T07:25:05.107Z,100278.53
2022-09-03T07:27:35.995Z,100275.25
2022-09-03T07:30:09.911Z,100279.16
2022-09-03T07:32:41.720Z,100280.25
2022-09-03T07:35:17.043Z,100275.44
2022-09-03T07:37:47.255Z,100277.09
2022-09-03T07:40:20.536Z,100278.84
2022-09-03T07:42:55.036Z,100285.44
2022-09-03T07:45:26.292Z,100289.34
2022-09-03T07:47:58.485Z,100291.06
2022-09-03T07:50:31.286Z,100288.81
2022-09-03T07:53:01.161Z,100285.91
2022-09-03T07:55:32.382Z,100292.75
2022-09-03T07:58:01.747Z,100286.28
2022-09-03T08:00:34.463Z,100287.91
2022-09-03T08:03:09.073Z,100290.72
2022-09-03T08:05:39.472Z,100291.66
2022-09-03T08:08:10.711Z,100292.13
2022-09-03T08:10:45.925Z,100289.34
2022-09-03T08:13:17.109Z,100288.59
2022-09-03T08:15:56.663Z,100297.59
2022-09-03T08:18:32.636Z,100291.69
2022-09-03T08:21:02.603Z,100290.88
2022-09-03T08:23:32.681Z,100283.12
2022-09-03T08:26:03.660Z,100287.38
2022-09-03T08:28:34.839Z,100286.53
2022-09-03T08:31:13.779Z,100284.41
2022-09-03T08:33:49.299Z,100279.91
2022-09-03T08:36:25.982Z,100287.91
2022-09-03T08:38:57.936Z,100290.12
2022-09-03T08:41:51.342Z,100287.81
2022-09-03T08:44:40.524Z,100296.91
2022-09-03T08:47:23.640Z,100299.00
2022-09-03T08:50:10.042Z,100294.97
2022-09-03T08:52:52.469Z,100285.75
2022-09-03T08:55:28.382Z,100288.78
2022-09-03T08:58:01.954Z,100289.97
2022-09-03T09:01:06.207Z,100289.44
2022-09-03T09:03:48.485Z,100288.13
2022-09-03T09:06:47.317Z,100278.25
2022-09-03T09:09:23.754Z,100267.59
2022-09-03T09:12:41.151Z,100275.25
2022-09-03T09:15:37.416Z,100280.56
2022-09-03T09:19:10.542Z,100265.66
2022-09-03T09:21:51.494Z,100259.44
2022-09-03T09:24:27.384Z,100258.88
2022-09-03T09:27:04.948Z,100254.91
2022-09-03T09:29:38.365Z,100262.69
2022-09-03T09:32:10.730Z,100260.38
2022-09-03T09:34:42.725Z,100259.06
2022-09-03T09:37:17.595Z,100251.19
2022-09-03T09:40:02.676Z,100264.09
2022-09-03T09:42:32.738Z,100259.06
2022-09-03T09:45:13.874Z,100253.66
2022-09-03T09:47:43.057Z,100255.09
2022-09-03T09:50:25.183Z,100262.72
2022-09-03T09:53:09.003Z,100260.78
2022-09-03T09:55:53.112Z,100251.41
2022-09-03T09:58:24.428Z,100258.97
2022-09-03T10:01:15.529Z,100255.69
2022-09-03T10:04:01.647Z,100257.66
2022-09-03T10:06:50.944Z,100260.28
2022-09-03T10:09:26.670Z,100261.84
2022-09-03T10:12:38.335Z,100260.19
2022-09-03T10:15:31.862Z,100253.63
2022-09-03T10:18:16.449Z,100261.53
2022-09-03T10:20:55.796Z,100261.81
2022-09-03T10:23:28.838Z,100254.75
2022-09-03T10:26:15.720Z,100254.25
2022-09-03T10:28:46.368Z,100248.28
2022-09-03T10:31:41.779Z,100251.22
2022-09-03T10:34:18.894Z,100250.75
2022-09-03T10:36:55.036Z,100247.31
2022-09-03T10:39:26.568Z,100244.25
2022-09-03T10:42:22.417Z,100237.81
2022-09-03T10:45:00.868Z,100235.00
2022-09-03T10:47:51.417Z,100232.84
2022-09-03T10:51:06.518Z,100235.72
2022-09-03T10:53:58.266Z,100239.63
2022-09-03T10:56:40.684Z,100231.56
2022-09-03T10:59:29.275Z,100219.31
2022-09-03T11:02:26.496Z,100222.66
2022-09-03T11:05:08.253Z,100222.97
2022-09-03T11:07:56.080Z,100215.00
2022-09-03T11:10:31.226Z,100214.88
2022-09-03T11:13:05.290Z,100223.78
2022-09-03T11:15:42.744Z,100221.84
2022-09-03T11:18:35.171Z,100221.62
2022-09-03T11:21:11.963Z,100229.06
2022-09-03T11:23:46.246Z,100229.44
2022-09-03T11:26:18.051Z,100222.09
2022-09-03T11:28:51.019Z,100224.41
2022-09-03T11:31:25.626Z,100230.87
2022-09-03T11:34:05.258Z,100226.25
2022-09-03T11:36:38.317Z,100228.09
2022-09-03T11:39:21.970Z,100217.09
2022-09-03T11:42:09.239Z,100226.47
2022-09-03T11:44:45.900Z,100226.34
2022-09-03T11:47:24.487Z,100227.94
2022-09-03T11:49:54.202Z,100224.72
2022-09-03T11:52:32.473Z,100223.19
2022-09-03T11:55:00.393Z,100225.38
2022-09-03T11:57:31.401Z,100220.50
2022-09-03T12:00:15.985Z,100229.69
2022-09-03T12:02:56.765Z,100232.53
2022-09-03T12:05:39.566Z,100226.87
2022-09-03T12:08:31.360Z,100234.22
2022-09-03T12:11:18.047Z,100235.62
2022-09-03T12:13:52.916Z,100230.69
2022-09-03T12:16:33.314Z,100222.31
2022-09-03T12:19:04.596Z,100221.00
2022-09-03T12:21:39.565Z,100214.19
2022-09-03T12:24:12.085Z,100215.47
2022-09-03T12:26:42.178Z,100217.56
2022-09-03T12:29:28.123Z,100214.63
2022-09-03T12:32:07.921Z,100214.34
2022-09-03T12:34:38.130Z,100203.94
2022-09-03T12:37:19.504Z,100210.66
2022-09-03T12:40:09.093Z,100209.38
2022-09-03T12:42:39.306Z,100209.13
2022-09-03T12:45:12.490Z,100214.09
2022-09-03T12:47:43.857Z,100208.62
2022-09-03T12:50:20.331Z,100208.38
2022-09-03T12:53:00.132Z,100217.59
2022-09-03T12:55:57.186Z,100209.13
2022-09-03T12:58:35.845Z,100212.78
2022-09-03T13:01:17.467Z,100214.53
2022-09-03T13:03:58.039Z,100213.97
2022-09-03T13:06:50.120Z,100221.13
2022-09-03T13:09:22.359Z,100204.84
2022-09-03T13:11:52.691Z,100210.53
2022-09-03T13:14:21.041Z,100208.88
2022-09-03T13:17:14.844Z,100202.19
2022-09-03T13:20:11.563Z,100199.59
2022-09-03T13:22:57.798Z,100189.66
2022-09-03T13:25:46.074Z,100189.84
2022-09-03T13:28:21.494Z,100190.97
2022-09-03T13:31:01.243Z,100186.28
2022-09-03T13:33:38.237Z,100190.16
2022-09-03T13:36:19.432Z,100184.28
2022-09-03T13:38:53.583Z,100184.94
2022-09-03T13:41:38.813Z,100184.25
2022-09-03T13:44:22.915Z,100186.13
2022-09-03T13:46:59.476Z,100189.91
2022-09-03T13:50:02.955Z,100195.69
2022-09-03T13:52:43.042Z,100188.94
2022-09-03T13:55:33.591Z,100180.94
2022-09-03T13:58:11.677Z,100182.31
2022-09-03T14:01:04.965Z,100180.63
2022-09-03T14:03:48.742Z,100174.03
2022-09-03T14:06:26.866Z,100174.12
2022-09-03T14:09:16.245Z,100175.22
2022-09-03T14:12:03.389Z,100171.41
2022-09-03T14:14:49.584Z,100170.25
2022-09-03T14:17:59.592Z,100169.47
2022-09-03T14:20:38.643Z,100164.97
2022-09-03T14:23:30.197Z,100164.38
2022-09-03T14:26:04.398Z,100160.34
2022-09-03T14:28:38.354Z,100160.41
2022-09-03T14:31:31.049Z,100156.47
2022-09-03T14:34:08.887Z,100152.31
2022-09-03T14:36:42.741Z,100156.75
2022-09-03T14:39:32.668Z,100153.09
2022-09-03T14:42:31.471Z,100156.22
2022-09-03T14:45:09.095Z,100148.09
2022-09-03T14:48:02.269Z,100142.28
2022-09-03T14:50:58.951Z,100139.63
2022-09-03T14:53:34.177Z,100138.69
2022-09-03T14:56:15.014Z,100152.87
2022-09-03T14:59:21.694Z,100144.69
2022-09-03T15:02:08.432Z,100143.03
2022-09-03T15:04:57.922Z,100151.28
2022-09-03T15:07:55.028Z,100152.25
2022-09-03T15:10:33.332Z,100157.47
2022-09-03T15:13:10.016Z,100152.97
2022-09-03T15:15:41.744Z,100157.72
2022-09-03T15:18:31.206Z,100160.47
2022-09-03T15:21:34.018Z,100155.63
2022-09-03T15:24:17.852Z,100157.88
2022-09-03T15:26:59.424Z,100157.06
2022-09-03T15:29:46.347Z,100154.91
2022-09-03T15:32:55.756Z,100155.69
2022-09-03T15:35:42.592Z,100160.72
2022-09-03T15:38:45.657Z,100149.31
2022-09-03T15:41:35.930Z,100146.91
2022-09-03T15:44:09.357Z,100144.19
2022-09-03T15:46:51.104Z,100146.84
2022-09-03T15:49:45.410Z,100146.94
2022-09-03T15:52:29.090Z,100147.75
2022-09-03T15:55:09.105Z,100155.06
2022-09-03T15:57:54.745Z,100155.28
2022-09-03T16:00:23.533Z,100147.19
2022-09-03T16:03:07.744Z,100145.16
2022-09-03T16:05:57.526Z,100142.53
2022-09-03T16:08:48.557Z,100152.84
2022-09-03T16:11:34.713Z,100145.87
2022-09-03T16:14:18.514Z,100144.84
2022-09-03T16:17:28.007Z,100138.34
2022-09-03T16:20:05.087Z,100145.22
2022-09-03T16:22:55.410Z,100156.47
2022-09-03T16:25:35.885Z,100153.78
2022-09-03T16:28:15.039Z,100159.13
2022-09-03T16:31:00.968Z,100172.50
2022-09-03T16:33:57.674Z,100169.69
2022-09-03T16:36:32.881Z,100165.03
2022-09-03T16:39:16.940Z,100167.25
2022-09-03T16:42:03.795Z,100172.50
2022-09-03T16:44:58.644Z,100165.84
2022-09-03T16:47:43.007Z,100158.97
2022-09-03T16:50:48.453Z,100162.94
2022-09-03T16:53:29.015Z,100165.59
2022-09-03T16:56:36.742Z,100172.59
2022-09-03T16:59:12.293Z,100166.72
2022-09-03T17:01:59.895Z,100169.94
2022-09-03T17:04:40.400Z,100176.06
2022-09-03T17:07:18.201Z,100175.63
2022-09-03T17:10:21.801Z,100176.28
2022-09-03T17:13:14.033Z,100184.00
2022-09-03T17:16:04.280Z,100188.91
2022-09-03T17:18:56.282Z,100186.41
2022-09-03T17:21:47.529Z,100180.50
2022-09-03T17:24:26.697Z,100189.69
2022-09-03T17:27:23.970Z,100190.13
2022-09-03T17:30:17.219Z,100195.25
2022-09-03T17:33:24.767Z,100192.94
2022-09-03T17:36:27.432Z,100198.84
2022-09-03T17:39:21.528Z,100195.09
2022-09-03T17:41:54.747Z,100202.31
2022-09-03T17:44:48.438Z,100205.31
2022-09-03T17:47:19.412Z,100207.84
2022-09-03T17:49:54.410Z,100210.66
2022-09-03T17:52:28.098Z,100211.25
2022-09-03T17:55:03.627Z,100203.09
2022-09-03T17:57:47.174Z,100207.06
2022-09-03T18:00:31.634Z,100209.50
2022-09-03T18:03:14.457Z,100217.03
2022-09-03T18:06:08.686Z,100221.34
2022-09-03T18:09:01.208Z,100224.63
2022-09-03T18:12:00.567Z,100229.66
2022-09-03T18:14:34.779Z,100233.81
2022-09-03T18:17:11.581Z,100235.53
2022-09-03T18:20:09.140Z,100242.72
2022-09-03T18:23:04.128Z,100246.41
2022-09-03T18:25:54.539Z,100245.88
2022-09-03T18:28:48.977Z,100248.44
2022-09-03T18:31:36.791Z,100256.34
2022-09-03T18:34:28.063Z,100261.00
2022-09-03T18:37:17.240Z,100259.09
2022-09-03T18:40:05.280Z,100254.06
2022-09-03T18:43:05.871Z,100271.44
2022-09-03T18:49:31.029Z,100269.44
2022-09-03T18:52:48.090Z,100264.16
2022-09-03T18:56:04.455Z,100265.59
2022-09-03T18:59:09.736Z,100270.28
2022-09-03T19:01:59.331Z,100269.03
2022-09-03T19:05:32.512Z,100268.69
2022-09-03T19:08:32.489Z,100266.44
2022-09-03T19:11:27.333Z,100272.09
2022-09-03T19:14:17.050Z,100271.28
2022-09-03T19:17:07.257Z,100271.09
2022-09-03T19:20:33.426Z,100275.44
2022-09-03T19:23:21.656Z,100267.84
2022-09-03T19:26:11.084Z,100271.47
2022-09-03T19:29:03.625Z,100273.44
2022-09-03T19:32:02.745Z,100269.72
2022-09-03T19:35:20.052Z,100274.03
2022-09-03T19:38:35.334Z,100269.84
2022-09-03T19:41:48.367Z,100274.13
2022-09-03T19:44:59.921Z,100280.34
2022-09-03T19:48:04.006Z,100277.66
2022-09-03T19:50:57.224Z,100281.16
2022-09-03T19:53:45.320Z,100284.31
2022-09-03T19:56:42.731Z,100281.94
2022-09-03T19:59:43.067Z,100288.37
2022-09-03T20:02:31.102Z,100285.28
2022-09-03T20:05:20.640Z,100290.63
2022-09-03T20:08:10.446Z,100289.16
2022-09-03T20:10:43.941Z,100291.00
2022-09-03T20:13:15.123Z,100304.81
2022-09-03T20:16:01.167Z,100313.19
2022-09-03T20:18:56.142Z,100317.72
2022-09-03T20:21:31.022Z,100316.56
2022-09-03T20:24:34.379Z,100316.53
2022-09-03T20:27:26.629Z,100312.19
2022-09-03T20:30:13.762Z,100316.97
2022-09-03T20:32:45.334Z,100323.19
2022-09-03T20:35:20.813Z,100326.78
2022-09-03T20:38:04.546Z,100327.00
2022-09-03T20:40:59.650Z,100329.41
2022-09-03T20:43:41.833Z,100332.69
2022-09-03T20:46:35.415Z,100340.88
2022-09-03T20:49:38.084Z,100338.13
2022-09-03T20:52:12.379Z,100345.53
2022-09-03T20:55:03.395Z,100335.13
2022-09-03T20:57:38.424Z,100340.00
2022-09-03T21:00:14.135Z,100343.06
2022-09-03T21:02:48.517Z,100343.69
2022-09-03T21:05:25.576Z,100351.53
2022-09-03T21:08:06.368Z,100347.97
2022-09-03T21:11:06.394Z,100347.50
2022-09-03T21:13:41.006Z,100346.28
2022-09-03T21:16:24.626Z,100343.56
2022-09-03T21:18:55.723Z,100356.31
2022-09-03T21:21:38.494Z,100353.72
2022-09-03T21:24:18.787Z,100354.53
2022-09-03T21:26:54.115Z,100349.78
2022-09-03T21:29:33.309Z,100357.53
2022-09-03T21:32:08.863Z,100352.75
2022-09-03T21:35:03.932Z,100364.34
2022-09-03T21:37:40.130Z,100359.19
2022-09-03T21:40:09.858Z,100365.69
2022-09-03T21:43:24.312Z,100369.81
2022-09-03T21:45:53.966Z,100367.94
2022-09-03T21:48:27.682Z,100367.75
2022-09-03T21:50:57.977Z,100370.59
2022-09-03T21:53:38.963Z,100378.94
2022-09-03T21:56:48.098Z,100367.94
2022-09-03T21:59:32.412Z,100371.53
2022-09-03T22:02:04.658Z,100370.69
2022-09-03T22:04:34.402Z,100374.59
2022-09-03T22:07:20.862Z,100373.91
2022-09-03T22:09:56.662Z,100371.81
2022-09-03T22:12:40.480Z,100369.00
2022-09-03T22:15:14.877Z,100373.34
2022-09-03T22:18:02.290Z,100369.59
2022-09-03T22:20:36.602Z,100378.91
2022-09-03T22:23:21.088Z,100375.87
2022-09-03T22:26:20.842Z,100380.06
2022-09-03T22:29:08.583Z,100371.94
2022-09-03T22:31:47.182Z,100382.03
2022-09-03T22:34:58.330Z,100373.25
2022-09-03T22:37:38.197Z,100380.91
2022-09-03T22:40:37.499Z,100378.31
2022-09-03T22:43:18.710Z,100378.94
2022-09-03T22:46:14.571Z,100374.19
2022-09-03T22:49:00.577Z,100381.72
2022-09-03T22:51:40.800Z,100378.94
2022-09-03T22:54:30.442Z,100374.19
2022-09-03T22:57:05.983Z,100371.16
2022-09-03T23:00:09.922Z,100373.25
2022-09-03T23:02:39.611Z,100365.13
2022-09-03T23:05:34.534Z,100376.06
2022-09-03T23:08:12.966Z,100375.41
2022-09-03T23:11:23.897Z,100376.72
2022-09-03T23:14:15.480Z,100378.31
2022-09-03T23:16:51.669Z,100381.44
2022-09-03T23:19:41.440Z,100391.66
2022-09-03T23:22:19.002Z,100379.84
2022-09-03T23:24:59.795Z,100381.53
2022-09-03T23:27:44.121Z,100387.50
2022-09-03T23:30:14.916Z,100383.06
2022-09-03T23:32:48.122Z,100380.97
2022-09-03T23:35:20.048Z,100389.78
2022-09-03T23:38:00.571Z,100388.28
2022-09-03T23:40:44.372Z,100382.16
2022-09-03T23:43:30.308Z,100388.03
2022-09-03T23:46:18.604Z,100392.13
2022-09-03T23:48:55.061Z,100395.09
2022-09-03T23:51:40.898Z,100392.22
2022-09-03T23:54:32.243Z,100385.34
2022-09-03T23:57:32.804Z,100392.75
